createdAt,value
2023-02-18T09:14:38.932Z,7.82
2023-02-18T09:17:06.620Z,6.60
2023-02-18T09:19:34.318Z,7.25
2023-02-18T09:22:02.688Z,7.13
2023-02-18T09:24:30.437Z,6.32
2023-02-18T09:26:58.126Z,7.03
2023-02-18T09:29:25.803Z,8.05
2023-02-18T09:31:54.891Z,9.60
2023-02-18T09:34:22.642Z,10.27
2023-02-18T09:36:50.302Z,12.30
2023-02-18T09:39:18.063Z,10.35
2023-02-18T09:41:47.551Z,12.02
2023-02-18T09:44:18.152Z,9.50
2023-02-18T09:46:49.764Z,9.10
2023-02-18T09:49:19.829Z,8.98
2023-02-18T09:51:47.640Z,12.50
2023-02-18T09:54:17.399Z,8.63
2023-02-18T09:56:45.427Z,12.20
2023-02-18T09:59:15.913Z,12.85
2023-02-18T10:01:43.626Z,15.05
2023-02-18T10:04:14.143Z,7.50
2023-02-18T10:06:43.168Z,9.00
2023-02-18T10:09:16.279Z,9.57
2023-02-18T10:11:44.630Z,10.68
2023-02-18T10:14:13.050Z,8.70
2023-02-18T10:16:40.774Z,14.25
2023-02-18T10:19:21.037Z,9.68
2023-02-18T10:21:50.232Z,11.57
2023-02-18T10:24:24.915Z,15.45
2023-02-18T10:26:52.638Z,19.70
2023-02-18T10:29:22.053Z,10.23
2023-02-18T10:31:57.290Z,23.95
2023-02-18T10:34:31.353Z,8.90
2023-02-18T10:37:03.551Z,12.27
2023-02-18T10:39:42.696Z,13.45
2023-02-18T10:42:17.243Z,15.00
2023-02-18T10:44:49.473Z,16.42
2023-02-18T10:47:33.750Z,14.77
2023-02-18T10:50:02.186Z,22.73
2023-02-18T10:52:34.662Z,12.00
2023-02-18T10:55:04.397Z,12.95
2023-02-18T10:57:32.280Z,10.23
2023-02-18T11:00:01.839Z,15.65
2023-02-18T11:02:31.443Z,16.48
2023-02-18T11:04:59.904Z,7.75
2023-02-18T11:07:32.806Z,9.38
2023-02-18T11:10:01.016Z,12.10
2023-02-18T11:12:29.996Z,10.75
2023-02-18T11:15:17.206Z,13.27
2023-02-18T11:17:46.327Z,8.35
2023-02-18T11:20:24.350Z,10.43
2023-02-18T11:22:53.478Z,13.05
2023-02-18T11:25:22.321Z,11.00
2023-02-18T11:27:50.849Z,9.48
2023-02-18T11:30:20.528Z,9.05
2023-02-18T11:32:49.419Z,8.23
2023-02-18T11:35:18.973Z,12.13
2023-02-18T11:37:46.662Z,10.38
2023-02-18T11:40:22.662Z,12.48
2023-02-18T11:42:50.437Z,15.80
2023-02-18T11:45:28.387Z,15.90
2023-02-18T11:48:00.307Z,12.80
2023-02-18T11:50:27.998Z,13.55
2023-02-18T11:52:57.665Z,13.05
2023-02-18T11:55:27.229Z,16.25
2023-02-18T11:57:56.976Z,9.05
2023-02-18T12:00:26.347Z,9.80
2023-02-18T12:02:54.837Z,10.95
2023-02-18T12:05:23.966Z,10.57
2023-02-18T12:07:53.589Z,8.77
2023-02-18T12:10:26.248Z,11.23
2023-02-18T12:12:57.879Z,13.35
2023-02-18T12:15:27.777Z,11.20
2023-02-18T12:18:06.138Z,9.35
2023-02-18T12:20:45.022Z,7.15
2023-02-18T12:23:15.733Z,6.00
2023-02-18T12:25:48.897Z,8.98
2023-02-18T12:28:28.244Z,7.75
2023-02-18T12:31:39.414Z,9.48
2023-02-18T12:34:21.374Z,6.28
2023-02-18T12:36:55.844Z,8.00
2023-02-18T12:39:30.619Z,8.93
2023-02-18T12:42:07.053Z,8.82
2023-02-18T12:44:45.202Z,8.20
2023-02-18T12:47:30.939Z,7.43
2023-02-18T12:50:16.049Z,8.02
2023-02-18T12:52:47.510Z,11.98
2023-02-18T12:55:33.202Z,8.10
2023-02-18T12:58:06.674Z,5.50
2023-02-18T13:00:44.621Z,6.78
2023-02-18T13:03:22.893Z,4.32
2023-02-18T13:05:53.109Z,7.97
2023-02-18T13:08:28.044Z,8.75
2023-02-18T13:11:05.542Z,3.78
2023-02-18T13:13:35.901Z,3.22
2023-02-18T13:16:05.291Z,6.47
2023-02-18T13:18:34.429Z,8.32
2023-02-18T13:21:05.803Z,4.43
2023-02-18T13:23:35.245Z,5.57
2023-02-18T13:26:04.307Z,5.95
2023-02-18T13:28:35.902Z,6.68
2023-02-18T13:31:14.398Z,8.48
2023-02-18T13:33:45.996Z,5.40
2023-02-18T13:36:17.925Z,13.00
2023-02-18T13:38:59.125Z,8.02
2023-02-18T13:41:27.118Z,11.38
2023-02-18T13:43:56.131Z,11.07
2023-02-18T13:46:23.967Z,7.30
2023-02-18T13:48:52.982Z,16.77
2023-02-18T13:51:29.689Z,13.70
2023-02-18T13:54:01.853Z,14.38
2023-02-18T13:56:30.044Z,16.00
2023-02-18T13:59:01.569Z,21.00
2023-02-18T14:01:42.972Z,21.88
2023-02-18T14:04:37.107Z,21.15
2023-02-18T14:07:44.642Z,23.63
2023-02-18T14:10:30.017Z,17.40
2023-02-18T14:13:20.478Z,21.52
2023-02-18T14:15:53.712Z,21.77
2023-02-18T14:18:26.390Z,22.45
2023-02-18T14:20:54.350Z,22.83
2023-02-18T14:23:58.895Z,24.52
2023-02-18T14:26:32.816Z,23.85
2023-02-18T14:29:03.525Z,19.73
2023-02-18T14:31:48.458Z,14.30
2023-02-18T14:34:45.967Z,35.97
2023-02-18T14:37:30.764Z,26.63
2023-02-18T14:40:03.134Z,38.42
2023-02-18T14:42:35.867Z,30.65
2023-02-18T14:45:10.478Z,65.65
2023-02-18T14:47:46.788Z,34.33
2023-02-18T14:50:15.836Z,30.95
2023-02-18T14:52:44.529Z,49.70
2023-02-18T14:55:18.954Z,26.42
2023-02-18T14:57:47.265Z,38.80
2023-02-18T15:00:16.967Z,38.25
2023-02-18T15:02:47.314Z,29.60
2023-02-18T15:05:16.402Z,34.47
2023-02-18T15:07:55.183Z,24.50
2023-02-18T15:10:22.942Z,25.52
2023-02-18T15:12:50.624Z,17.13
2023-02-18T15:15:18.391Z,25.40
2023-02-18T15:17:48.404Z,19.45
2023-02-18T15:20:16.103Z,22.75
2023-02-18T15:22:43.790Z,23.65
2023-02-18T15:25:12.752Z,24.20
2023-02-18T15:27:41.773Z,27.42
2023-02-18T15:30:19.242Z,22.15
2023-02-18T15:32:51.709Z,12.43
2023-02-18T15:35:20.413Z,10.02
2023-02-18T15:37:53.264Z,28.20
2023-02-18T15:40:21.192Z,34.53
2023-02-18T15:42:51.040Z,20.83
2023-02-18T15:45:20.388Z,24.80
2023-02-18T15:47:50.831Z,22.00
2023-02-18T15:50:19.021Z,22.50
2023-02-18T15:52:46.704Z,29.17
2023-02-18T15:55:16.101Z,23.75
2023-02-18T15:57:43.843Z,18.02
2023-02-18T16:00:15.524Z,16.52
2023-02-18T16:02:53.869Z,12.88
2023-02-18T16:05:25.589Z,12.43
2023-02-18T16:07:53.967Z,17.40
2023-02-18T16:10:23.571Z,8.98
2023-02-18T16:12:52.769Z,8.82
2023-02-18T16:15:24.231Z,11.32
2023-02-18T16:17:53.222Z,6.65
2023-02-18T16:20:27.127Z,13.80
2023-02-18T16:22:55.434Z,16.27
2023-02-18T16:25:25.430Z,11.80
2023-02-18T16:27:55.110Z,15.45
2023-02-18T16:30:23.941Z,9.13
2023-02-18T16:32:54.243Z,19.05
2023-02-18T16:35:22.207Z,12.95
2023-02-18T16:37:50.880Z,7.85
2023-02-18T16:40:27.822Z,18.92
2023-02-18T16:42:55.740Z,14.68
2023-02-18T16:45:27.729Z,14.43
2023-02-18T16:47:56.756Z,11.15
2023-02-18T16:50:24.426Z,20.77
2023-02-18T16:52:52.141Z,16.38
2023-02-18T16:55:20.936Z,16.63
2023-02-18T16:57:48.710Z,17.02
2023-02-18T17:00:17.510Z,17.58
2023-02-18T17:02:45.329Z,19.00
2023-02-18T17:05:26.336Z,14.73
2023-02-18T17:07:54.368Z,27.63
2023-02-18T17:10:22.214Z,63.40
2023-02-18T17:12:49.942Z,22.05
2023-02-18T17:15:27.146Z,20.92
2023-02-18T17:17:54.973Z,36.08
2023-02-18T17:20:24.037Z,34.58
2023-02-18T17:22:51.709Z,26.25
2023-02-18T17:25:21.950Z,28.95
2023-02-18T17:27:49.643Z,30.02
2023-02-18T17:30:17.991Z,27.70
2023-02-18T17:32:45.731Z,39.38
2023-02-18T17:35:17.471Z,37.95
2023-02-18T17:37:46.459Z,34.85
2023-02-18T17:40:15.705Z,28.35
2023-02-18T17:43:42.303Z,31.15
2023-02-18T17:46:11.564Z,44.97
2023-02-18T17:48:39.472Z,28.23
2023-02-18T17:51:07.524Z,23.05
2023-02-18T17:53:36.513Z,34.78
2023-02-18T17:56:04.378Z,24.25
2023-02-18T17:58:32.080Z,27.05
2023-02-18T18:00:59.896Z,29.23
2023-02-18T18:03:27.584Z,28.67
2023-02-18T18:05:57.459Z,13.48
2023-02-18T18:08:25.155Z,18.73
2023-02-18T18:10:55.584Z,15.32
2023-02-18T18:13:24.352Z,17.73
2023-02-18T18:15:52.250Z,22.08
2023-02-18T18:18:20.015Z,20.85
2023-02-18T18:20:48.762Z,20.73
2023-02-18T18:23:17.107Z,23.38
2023-02-18T18:25:45.728Z,19.27
2023-02-18T18:28:14.842Z,17.77
2023-02-18T18:30:45.290Z,16.48
2023-02-18T18:33:17.389Z,15.93
2023-02-18T18:35:45.836Z,13.43
2023-02-18T18:38:13.627Z,17.33
2023-02-18T18:40:41.390Z,11.98
2023-02-18T18:43:09.144Z,21.63
2023-02-18T18:45:38.193Z,14.40
2023-02-18T18:48:06.192Z,11.30
2023-02-18T18:50:37.476Z,12.98
2023-02-18T18:53:05.446Z,13.40
2023-02-18T18:55:34.072Z,13.70
2023-02-18T18:58:01.780Z,9.75
2023-02-18T19:00:31.254Z,9.40
2023-02-18T19:03:00.318Z,10.80
2023-02-18T19:05:29.646Z,18.25
2023-02-18T19:07:58.239Z,9.63
2023-02-18T19:10:26.995Z,16.63
2023-02-18T19:12:55.482Z,12.68
2023-02-18T19:15:23.720Z,10.27
2023-02-18T19:17:52.443Z,10.65
2023-02-18T19:20:22.587Z,10.05
2023-02-18T19:22:50.327Z,10.25
2023-02-18T19:25:18.376Z,7.80
2023-02-18T19:27:46.645Z,6.55
2023-02-18T19:30:15.488Z,7.95
2023-02-18T19:32:43.238Z,9.13
2023-02-18T19:35:10.877Z,9.10
2023-02-18T19:37:39.942Z,8.70
2023-02-18T19:40:09.778Z,9.85
2023-02-18T19:42:37.443Z,7.75
2023-02-18T19:45:05.610Z,8.68
2023-02-18T19:47:33.273Z,7.22
2023-02-18T19:50:01.305Z,7.97
2023-02-18T19:52:29.116Z,7.88
2023-02-18T19:54:58.138Z,7.38
2023-02-18T19:57:25.781Z,5.32
2023-02-18T19:59:53.460Z,7.20
2023-02-18T20:02:22.127Z,7.50
2023-02-18T20:04:49.873Z,7.85
2023-02-18T20:07:18.277Z,6.80
2023-02-18T20:09:46.111Z,5.80
2023-02-18T20:12:15.121Z,7.05
2023-02-18T20:14:43.577Z,7.47
2023-02-18T20:17:11.649Z,7.88
2023-02-18T20:19:39.381Z,5.20
2023-02-18T20:22:10.063Z,5.25
2023-02-18T20:24:39.470Z,6.53
2023-02-18T20:27:07.250Z,8.57
2023-02-18T20:29:36.334Z,6.47
2023-02-18T20:32:04.181Z,4.45
2023-02-18T20:34:32.759Z,5.10
2023-02-18T20:37:00.502Z,5.05
2023-02-18T20:39:28.262Z,4.88
2023-02-18T20:41:57.839Z,4.93
2023-02-18T20:44:28.295Z,3.63
2023-02-18T20:46:57.386Z,3.15
2023-02-18T20:49:25.080Z,4.47
2023-02-18T20:51:52.736Z,5.28
2023-02-18T20:54:20.585Z,3.75
2023-02-18T20:56:49.290Z,6.30
2023-02-18T20:59:18.559Z,3.20
2023-02-18T21:01:46.349Z,4.57
2023-02-18T21:04:15.948Z,2.75
2023-02-18T21:06:45.128Z,4.50
2023-02-18T21:09:12.944Z,3.63
2023-02-18T21:11:40.615Z,3.55
2023-02-18T21:14:08.326Z,3.10
2023-02-18T21:16:39.349Z,5.00
2023-02-18T21:19:07.568Z,4.45
2023-02-18T21:21:36.628Z,3.03
2023-02-18T21:24:04.608Z,3.95
2023-02-18T21:26:32.400Z,3.53
2023-02-18T21:29:00.871Z,3.25
2023-02-18T21:31:29.689Z,6.00
2023-02-18T21:33:57.446Z,4.50
2023-02-18T21:36:25.261Z,3.00
2023-02-18T21:38:54.486Z,3.30
2023-02-18T21:41:22.393Z,1.70
2023-02-18T21:43:50.138Z,4.35
2023-02-18T21:46:18.528Z,2.38
2023-02-18T21:49:05.687Z,3.65
2023-02-18T21:51:52.763Z,3.05
2023-02-18T21:54:22.794Z,3.40
2023-02-18T21:56:50.640Z,2.80
2023-02-18T21:59:18.667Z,3.33
2023-02-18T22:01:46.382Z,4.07
2023-02-18T22:04:14.079Z,2.55
2023-02-18T22:06:41.797Z,2.65
2023-02-18T22:09:09.550Z,3.40
2023-02-18T22:11:38.538Z,2.72
2023-02-18T22:14:06.243Z,2.35
2023-02-18T22:16:33.884Z,3.65
2023-02-18T22:19:01.540Z,2.75
2023-02-18T22:21:29.236Z,2.95
2023-02-18T22:23:56.891Z,2.10
2023-02-18T22:26:24.592Z,2.60
2023-02-18T22:28:54.431Z,2.92
2023-02-18T22:31:22.859Z,2.95
2023-02-18T22:33:52.069Z,2.97
2023-02-18T22:36:20.307Z,3.03
2023-02-18T22:38:48.079Z,2.97
2023-02-18T22:41:16.728Z,1.98
2023-02-18T22:43:44.492Z,1.65
2023-02-18T22:46:14.309Z,1.90
2023-02-18T22:48:42.322Z,3.28
2023-02-18T22:51:12.379Z,3.45
2023-02-18T22:53:40.377Z,2.80
2023-02-18T22:56:09.228Z,3.20
2023-02-18T22:58:37.203Z,1.95
2023-02-18T23:01:05.177Z,2.40
2023-02-18T23:03:34.282Z,1.95
2023-02-18T23:06:02.478Z,2.67
2023-02-18T23:08:30.743Z,1.92
2023-02-18T23:11:02.233Z,3.05
2023-02-18T23:13:30.017Z,2.00
2023-02-18T23:15:58.334Z,1.90
2023-02-18T23:18:26.325Z,2.85
2023-02-18T23:21:17.437Z,2.28
2023-02-18T23:23:45.177Z,2.28
2023-02-18T23:26:13.027Z,1.90
2023-02-18T23:28:48.378Z,2.25
2023-02-18T23:31:17.299Z,2.22
2023-02-18T23:33:45.225Z,2.40
2023-02-18T23:36:15.645Z,2.50
2023-02-18T23:38:43.312Z,2.30
2023-02-18T23:41:11.194Z,2.58
2023-02-18T23:43:39.008Z,2.40
2023-02-18T23:46:06.763Z,2.42
2023-02-18T23:48:36.802Z,2.60
2023-02-18T23:51:07.442Z,3.15
2023-02-18T23:53:37.172Z,2.65
2023-02-18T23:56:06.426Z,2.78
2023-02-18T23:58:34.165Z,3.28
